Time;durP1;ratioP1;P1;durP2;ratioP2;P2;SDS_P1;SDS_P2;PMS_P1;PMS_P2;Temp;Humidity;BMP_temperature;BMP_pressure;BME280_temperature;BME280_humidity;BME280_pressure;Samples;Min_cycle;Max_cycle;Signal;HPM_P1;HPM_P2
2021/05/02 00:00:17;;;;;;;29.93;9.60;;;;;;;;;;5056822;28;20290;-82
2021/05/02 00:02:42;;;;;;;29.73;9.73;;;;;;;;;;5055934;28;20260;-82
2021/05/02 00:05:08;;;;;;;29.07;9.30;;;;;;;;;;5057023;28;20513;-82
2021/05/02 00:07:33;;;;;;;35.13;11.67;;;;;;;;;;5056564;28;20013;-82
2021/05/02 00:09:59;;;;;;;35.57;9.77;;;;;;;;;;5057667;28;20412;-82
2021/05/02 00:12:25;;;;;;;39.53;11.77;;;;;;;;;;5056949;28;20055;-82
2021/05/02 00:14:50;;;;;;;43.00;11.53;;;;;;;;;;5057325;28;20064;-82
2021/05/02 00:17:15;;;;;;;44.33;11.87;;;;;;;;;;5057764;28;20275;-82
2021/05/02 00:19:42;;;;;;;29.63;9.30;;;;;;;;;;5057463;28;20036;-82
2021/05/02 00:22:07;;;;;;;36.13;11.30;;;;;;;;;;5040141;28;20013;-82
2021/05/02 00:24:33;;;;;;;42.67;12.63;;;;;;;;;;5057878;28;20264;-82
2021/05/02 00:26:59;;;;;;;37.93;11.33;;;;;;;;;;5061802;28;20024;-82
2021/05/02 00:29:24;;;;;;;48.70;12.27;;;;;;;;;;5061073;28;20279;-82
2021/05/02 00:31:50;;;;;;;52.30;12.27;;;;;;;;;;5059425;28;20017;-82
2021/05/02 00:34:15;;;;;;;43.87;12.13;;;;;;;;;;5057333;28;20069;-82
2021/05/02 00:36:42;;;;;;;55.50;12.70;;;;;;;;;;5056551;28;20027;-82
2021/05/02 00:39:07;;;;;;;58.10;13.37;;;;;;;;;;5058874;28;20033;-82
2021/05/02 00:41:34;;;;;;;62.07;13.27;;;;;;;;;;5060887;28;20317;-82
2021/05/02 00:44:13;;;;;;;48.80;12.23;;;;;;;;;;5042579;28;20021;-82
2021/05/02 00:46:48;;;;;;;50.70;14.20;;;;;;;;;;5060827;28;20271;-82
2021/05/02 00:49:16;;;;;;;61.13;13.93;;;;;;;;;;5038715;28;20632;-82
2021/05/02 00:51:44;;;;;;;50.60;14.00;;;;;;;;;;5061493;28;20321;-82
2021/05/02 00:54:13;;;;;;;48.87;13.13;;;;;;;;;;5062036;28;20272;-82
2021/05/02 00:56:50;;;;;;;49.33;14.17;;;;;;;;;;5070421;28;20266;-82
2021/05/02 00:59:21;;;;;;;55.67;12.77;;;;;;;;;;5060351;28;20279;-82
2021/05/02 01:01:50;;;;;;;45.67;12.13;;;;;;;;;;5081713;22;20346;-67
2021/05/02 01:04:24;;;;;;;49.00;12.53;;;;;;;;;;5072366;28;20270;-66
2021/05/02 01:06:50;;;;;;;46.63;12.37;;;;;;;;;;5091010;28;20274;-66
2021/05/02 01:09:16;;;;;;;53.87;13.30;;;;;;;;;;5094814;28;20305;-67
2021/05/02 01:11:45;;;;;;;61.67;13.63;;;;;;;;;;5094091;28;20365;-66
2021/05/02 01:14:11;;;;;;;55.63;13.37;;;;;;;;;;5095122;28;20119;-67
2021/05/02 01:16:38;;;;;;;54.43;13.53;;;;;;;;;;5093990;28;20365;-67
2021/05/02 01:19:07;;;;;;;53.60;14.20;;;;;;;;;;5092208;28;20674;-67
2021/05/02 01:21:35;;;;;;;59.07;13.80;;;;;;;;;;5091714;28;20339;-67
2021/05/02 01:24:01;;;;;;;49.27;13.30;;;;;;;;;;5088118;28;20361;-67
2021/05/02 01:26:27;;;;;;;52.90;13.43;;;;;;;;;;5094378;28;20354;-67
2021/05/02 01:28:54;;;;;;;61.17;13.70;;;;;;;;;;5082741;28;20085;-67
2021/05/02 01:31:19;;;;;;;47.80;13.30;;;;;;;;;;5090558;28;20047;-67
2021/05/02 01:33:46;;;;;;;42.97;12.37;;;;;;;;;;5094180;28;20274;-67
2021/05/02 01:36:11;;;;;;;38.00;11.10;;;;;;;;;;5094914;28;20020;-67
2021/05/02 01:38:37;;;;;;;39.27;11.73;;;;;;;;;;5094507;28;20341;-67
2021/05/02 01:41:02;;;;;;;31.80;11.20;;;;;;;;;;5091859;28;20335;-67
2021/05/02 01:43:27;;;;;;;33.37;11.30;;;;;;;;;;5087413;28;20024;-67
2021/05/02 01:45:53;;;;;;;31.53;11.63;;;;;;;;;;5089308;28;20055;-67
2021/05/02 01:48:19;;;;;;;37.13;11.97;;;;;;;;;;5083471;28;20448;-67
2021/05/02 01:50:50;;;;;;;26.77;10.20;;;;;;;;;;5093341;28;20458;-67
2021/05/02 01:53:16;;;;;;;32.13;11.37;;;;;;;;;;5093908;28;20292;-67
2021/05/02 01:55:41;;;;;;;30.67;10.67;;;;;;;;;;5094805;28;20737;-67
2021/05/02 01:58:07;;;;;;;26.93;10.57;;;;;;;;;;5094242;28;20115;-67
2021/05/02 02:00:40;;;;;;;29.53;10.80;;;;;;;;;;5095122;28;20103;-67
2021/05/02 02:03:07;;;;;;;24.33;10.00;;;;;;;;;;5113963;28;20032;-67
2021/05/02 02:05:32;;;;;;;24.77;10.10;;;;;;;;;;5112401;28;20310;-67
2021/05/02 02:07:58;;;;;;;21.93;9.30;;;;;;;;;;5107330;28;20023;-67
2021/05/02 02:10:25;;;;;;;19.93;9.07;;;;;;;;;;5108920;28;20386;-67
2021/05/02 02:12:50;;;;;;;23.20;9.67;;;;;;;;;;5107624;28;20280;-67
2021/05/02 02:15:16;;;;;;;26.07;9.93;;;;;;;;;;5114296;28;20637;-67
2021/05/02 02:17:44;;;;;;;23.37;8.63;;;;;;;;;;5109183;28;20024;-67
2021/05/02 02:20:10;;;;;;;22.97;9.23;;;;;;;;;;5113636;28;20055;-67
2021/05/02 02:22:39;;;;;;;26.37;9.97;;;;;;;;;;5106812;28;20356;-67
2021/05/02 02:25:05;;;;;;;26.43;9.27;;;;;;;;;;5113936;28;20270;-66
2021/05/02 02:27:31;;;;;;;25.63;9.50;;;;;;;;;;5107959;28;20374;-67
2021/05/02 02:29:57;;;;;;;26.27;9.60;;;;;;;;;;5114273;28;20031;-67
2021/05/02 02:32:23;;;;;;;24.77;9.13;;;;;;;;;;5110415;28;20343;-67
2021/05/02 02:34:49;;;;;;;23.67;8.63;;;;;;;;;;5114733;28;20107;-67
2021/05/02 02:37:15;;;;;;;22.97;9.47;;;;;;;;;;5110363;28;20379;-67
2021/05/02 02:39:43;;;;;;;23.07;9.47;;;;;;;;;;5094093;28;20084;-67
2021/05/02 02:42:11;;;;;;;23.93;9.37;;;;;;;;;;5103308;28;20748;-67
2021/05/02 02:44:38;;;;;;;22.67;9.47;;;;;;;;;;5113937;28;20276;-67
2021/05/02 02:47:05;;;;;;;21.40;8.97;;;;;;;;;;5112028;28;20272;-67
2021/05/02 02:49:32;;;;;;;21.40;8.83;;;;;;;;;;5114369;28;20265;-67
2021/05/02 02:51:59;;;;;;;20.83;8.77;;;;;;;;;;5112390;28;20284;-67
2021/05/02 02:54:25;;;;;;;20.90;8.67;;;;;;;;;;5108399;28;20270;-67
2021/05/02 02:56:53;;;;;;;19.07;8.27;;;;;;;;;;5114615;28;20419;-67
2021/05/02 02:59:19;;;;;;;24.97;9.43;;;;;;;;;;5109311;28;20027;-67
2021/05/02 03:01:47;;;;;;;21.03;8.33;;;;;;;;;;5104276;28;20833;-67
2021/05/02 03:04:15;;;;;;;22.70;9.03;;;;;;;;;;5113742;28;20022;-67
2021/05/02 03:06:41;;;;;;;19.37;8.40;;;;;;;;;;5104820;28;20274;-67
2021/05/02 03:09:07;;;;;;;20.23;8.70;;;;;;;;;;5113877;28;20682;-67
2021/05/02 03:11:33;;;;;;;25.70;8.43;;;;;;;;;;5112470;28;20417;-67
2021/05/02 03:13:58;;;;;;;17.80;7.90;;;;;;;;;;5112774;28;20265;-67
2021/05/02 03:16:25;;;;;;;21.23;8.80;;;;;;;;;;5112386;28;20657;-67
2021/05/02 03:19:09;;;;;;;22.87;8.27;;;;;;;;;;5113731;28;20035;-67
2021/05/02 03:21:38;;;;;;;20.67;8.97;;;;;;;;;;5113069;28;20265;-67
2021/05/02 03:24:05;;;;;;;18.23;8.33;;;;;;;;;;5113233;28;20276;-67
2021/05/02 03:26:31;;;;;;;22.13;8.93;;;;;;;;;;5113418;28;20629;-67
2021/05/02 03:29:01;;;;;;;21.80;7.97;;;;;;;;;;5112758;28;20270;-67
2021/05/02 03:31:34;;;;;;;19.30;7.63;;;;;;;;;;5112856;28;20027;-67
2021/05/02 03:34:03;;;;;;;20.30;7.38;;;;;;;;;;5102923;28;20448;-67
2021/05/02 03:36:49;;;;;;;21.40;8.37;;;;;;;;;;5107559;28;20375;-67
2021/05/02 03:39:14;;;;;;;16.03;7.27;;;;;;;;;;5111506;28;20370;-67
2021/05/02 03:41:40;;;;;;;15.33;7.27;;;;;;;;;;5113141;28;20050;-67
2021/05/02 03:44:05;;;;;;;16.47;7.53;;;;;;;;;;5103962;28;20016;-67
2021/05/02 03:46:31;;;;;;;16.10;6.63;;;;;;;;;;5110169;28;20026;-67
2021/05/02 03:49:06;;;;;;;15.93;6.90;;;;;;;;;;5113226;28;20463;-67
2021/05/02 03:51:34;;;;;;;19.27;6.87;;;;;;;;;;5101617;28;20020;-67
2021/05/02 03:53:59;;;;;;;17.17;7.30;;;;;;;;;;5112478;28;20098;-67
2021/05/02 03:56:29;;;;;;;13.97;6.53;;;;;;;;;;5104500;28;20486;-67
2021/05/02 03:59:02;;;;;;;16.70;7.63;;;;;;;;;;5107543;28;20035;-67
2021/05/02 04:01:27;;;;;;;17.17;7.10;;;;;;;;;;5105011;28;20043;-67
2021/05/02 04:03:52;;;;;;;14.23;5.77;;;;;;;;;;5101266;28;20027;-67
2021/05/02 04:06:17;;;;;;;15.97;6.03;;;;;;;;;;5097947;28;20016;-67
2021/05/02 04:08:43;;;;;;;14.37;6.07;;;;;;;;;;5111437;28;20027;-67
2021/05/02 04:11:08;;;;;;;15.73;6.23;;;;;;;;;;5111993;28;20361;-67
2021/05/02 04:13:33;;;;;;;13.73;6.60;;;;;;;;;;5111687;28;20042;-67
2021/05/02 04:15:58;;;;;;;13.87;5.83;;;;;;;;;;5112317;28;20024;-67
2021/05/02 04:18:30;;;;;;;13.73;5.83;;;;;;;;;;5111826;28;20118;-67
2021/05/02 04:20:56;;;;;;;12.88;5.50;;;;;;;;;;5106283;28;20036;-67
2021/05/02 04:23:21;;;;;;;13.03;5.97;;;;;;;;;;5112050;28;20096;-67
2021/05/02 04:25:46;;;;;;;14.87;5.80;;;;;;;;;;5108048;28;20021;-67
2021/05/02 04:28:11;;;;;;;12.67;5.60;;;;;;;;;;5112212;28;20076;-67
2021/05/02 04:30:37;;;;;;;13.43;6.37;;;;;;;;;;5108756;28;20526;-67
2021/05/02 04:33:02;;;;;;;12.97;5.80;;;;;;;;;;5111134;28;20047;-67
2021/05/02 04:35:27;;;;;;;14.37;6.23;;;;;;;;;;5107756;28;20024;-67
2021/05/02 04:37:52;;;;;;;13.70;5.73;;;;;;;;;;5111907;28;20027;-67
2021/05/02 04:40:18;;;;;;;16.30;6.47;;;;;;;;;;5106379;28;20490;-66
2021/05/02 04:42:43;;;;;;;16.07;5.47;;;;;;;;;;5110434;28;20024;-67
2021/05/02 04:45:09;;;;;;;13.57;5.67;;;;;;;;;;5111765;28;20102;-67
2021/05/02 04:47:34;;;;;;;15.00;6.07;;;;;;;;;;5111359;28;20027;-66
2021/05/02 04:50:01;;;;;;;12.70;5.47;;;;;;;;;;5104022;28;20082;-66
2021/05/02 04:52:29;;;;;;;13.20;5.37;;;;;;;;;;5108669;28;20030;-66
2021/05/02 04:54:54;;;;;;;15.67;5.83;;;;;;;;;;5110961;28;20027;-66
2021/05/02 04:57:19;;;;;;;13.73;5.60;;;;;;;;;;5102176;28;20035;-66
2021/05/02 04:59:45;;;;;;;13.53;5.33;;;;;;;;;;5110701;28;20437;-66
2021/05/02 05:02:10;;;;;;;13.60;5.53;;;;;;;;;;5098327;28;20051;-67
2021/05/02 05:04:35;;;;;;;11.87;4.83;;;;;;;;;;5107921;28;20081;-66
2021/05/02 05:07:00;;;;;;;16.10;5.47;;;;;;;;;;5102174;28;20066;-67
2021/05/02 05:09:26;;;;;;;13.00;5.23;;;;;;;;;;5112260;28;20101;-67
2021/05/02 05:11:51;;;;;;;12.87;5.50;;;;;;;;;;5103505;28;20039;-67
2021/05/02 05:14:17;;;;;;;13.67;4.73;;;;;;;;;;5111964;28;20070;-67
2021/05/02 05:16:42;;;;;;;13.83;4.80;;;;;;;;;;5111722;28;20371;-67
2021/05/02 05:19:07;;;;;;;11.73;5.43;;;;;;;;;;5106960;28;20028;-67
2021/05/02 05:21:32;;;;;;;10.57;5.00;;;;;;;;;;5112003;28;20084;-67
2021/05/02 05:23:58;;;;;;;13.73;5.57;;;;;;;;;;5111419;28;20016;-67
2021/05/02 05:26:23;;;;;;;14.77;5.67;;;;;;;;;;5107288;28;20030;-67
2021/05/02 05:28:48;;;;;;;11.33;4.60;;;;;;;;;;5116264;28;20023;-67
2021/05/02 05:31:13;;;;;;;13.57;5.37;;;;;;;;;;5111807;28;20059;-67
2021/05/02 05:33:39;;;;;;;13.80;5.07;;;;;;;;;;5116238;28;20020;-66
2021/05/02 05:36:04;;;;;;;11.77;5.27;;;;;;;;;;5111790;28;20027;-67
2021/05/02 05:38:29;;;;;;;9.53;4.50;;;;;;;;;;5115696;28;20020;-67
2021/05/02 05:40:55;;;;;;;14.40;5.53;;;;;;;;;;5102245;28;20035;-67
2021/05/02 05:43:20;;;;;;;15.87;6.57;;;;;;;;;;5115770;28;20023;-67
2021/05/02 05:45:46;;;;;;;12.77;5.50;;;;;;;;;;5115232;28;20027;-67
2021/05/02 05:48:11;;;;;;;18.17;5.83;;;;;;;;;;5115815;28;20098;-67
2021/05/02 05:50:36;;;;;;;14.93;6.10;;;;;;;;;;5113200;28;20035;-67
2021/05/02 05:53:02;;;;;;;15.77;5.87;;;;;;;;;;5115210;28;20471;-67
2021/05/02 05:55:30;;;;;;;14.97;5.60;;;;;;;;;;5114535;28;20031;-67
2021/05/02 05:57:55;;;;;;;13.10;5.50;;;;;;;;;;5115512;28;20034;-67
2021/05/02 06:00:21;;;;;;;14.67;5.57;;;;;;;;;;5110526;28;20032;-67
2021/05/02 06:02:47;;;;;;;13.50;5.53;;;;;;;;;;5087401;28;20032;-67
2021/05/02 06:05:13;;;;;;;11.93;4.97;;;;;;;;;;5090695;28;20027;-67
2021/05/02 06:07:38;;;;;;;14.40;5.50;;;;;;;;;;5093475;28;20016;-66
2021/05/02 06:10:04;;;;;;;12.40;5.37;;;;;;;;;;5092424;28;20106;-67
2021/05/02 06:12:29;;;;;;;16.70;5.10;;;;;;;;;;5093002;28;20585;-66
2021/05/02 06:14:54;;;;;;;13.43;5.33;;;;;;;;;;5094316;28;20024;-67
2021/05/02 06:17:20;;;;;;;13.63;4.70;;;;;;;;;;5094344;28;20447;-67
2021/05/02 06:19:45;;;;;;;14.07;4.53;;;;;;;;;;5088276;28;20039;-67
2021/05/02 06:22:11;;;;;;;10.97;4.17;;;;;;;;;;5093468;28;20020;-67
2021/05/02 06:24:36;;;;;;;10.63;4.70;;;;;;;;;;5090299;28;20016;-67
2021/05/02 06:27:01;;;;;;;16.10;4.60;;;;;;;;;;5092083;28;20061;-67
2021/05/02 06:29:26;;;;;;;12.83;4.93;;;;;;;;;;5090000;28;20425;-67
2021/05/02 06:31:52;;;;;;;14.50;4.87;;;;;;;;;;5093247;28;20487;-67
2021/05/02 06:34:17;;;;;;;10.57;4.87;;;;;;;;;;5093437;28;20388;-67
2021/05/02 06:36:42;;;;;;;9.50;4.17;;;;;;;;;;5089983;28;20096;-67
2021/05/02 06:39:09;;;;;;;13.23;4.97;;;;;;;;;;5093962;28;20417;-67
2021/05/02 06:41:37;;;;;;;10.73;4.87;;;;;;;;;;5091169;28;20017;-67
2021/05/02 06:44:02;;;;;;;11.77;4.07;;;;;;;;;;5085781;28;20024;-67
2021/05/02 06:46:28;;;;;;;10.30;4.80;;;;;;;;;;5091255;28;20016;-67
2021/05/02 06:49:01;;;;;;;10.70;4.43;;;;;;;;;;5085867;28;20029;-66
2021/05/02 06:51:27;;;;;;;9.23;4.37;;;;;;;;;;5090178;28;20053;-67
2021/05/02 06:53:52;;;;;;;11.60;4.80;;;;;;;;;;5093264;28;20031;-67
2021/05/02 06:56:19;;;;;;;16.20;4.80;;;;;;;;;;5088005;28;20051;-67
2021/05/02 06:58:45;;;;;;;10.57;4.53;;;;;;;;;;5094050;28;20067;-67
2021/05/02 07:01:11;;;;;;;16.07;4.67;;;;;;;;;;5091854;28;20135;-67
2021/05/02 07:03:36;;;;;;;10.50;4.57;;;;;;;;;;5091493;28;20118;-67
2021/05/02 07:06:03;;;;;;;13.30;4.27;;;;;;;;;;5090837;28;20024;-67
2021/05/02 07:08:28;;;;;;;7.93;3.77;;;;;;;;;;5085170;28;20027;-66
2021/05/02 07:10:53;;;;;;;11.23;4.40;;;;;;;;;;5092250;28;20031;-67
2021/05/02 07:13:18;;;;;;;12.70;4.50;;;;;;;;;;5093073;28;20483;-67
2021/05/02 07:15:44;;;;;;;10.47;4.53;;;;;;;;;;5092396;28;20032;-67
2021/05/02 07:18:09;;;;;;;9.30;4.73;;;;;;;;;;5090055;28;20512;-67
2021/05/02 07:20:34;;;;;;;7.33;3.43;;;;;;;;;;5091351;28;20046;-67
2021/05/02 07:23:00;;;;;;;7.13;3.10;;;;;;;;;;5089466;28;20167;-67
2021/05/02 07:25:26;;;;;;;8.20;3.37;;;;;;;;;;5090695;28;20049;-67
2021/05/02 07:27:52;;;;;;;6.93;3.13;;;;;;;;;;5092870;28;20024;-67
2021/05/02 07:30:19;;;;;;;7.37;3.53;;;;;;;;;;5091940;28;20032;-67
2021/05/02 07:32:44;;;;;;;6.53;2.90;;;;;;;;;;5083988;28;20028;-67
2021/05/02 07:35:10;;;;;;;7.80;3.10;;;;;;;;;;5089312;28;20066;-68
2021/05/02 07:37:35;;;;;;;7.93;3.60;;;;;;;;;;5081005;28;20028;-68
2021/05/02 07:40:01;;;;;;;9.53;3.73;;;;;;;;;;5075410;28;20036;-67
2021/05/02 07:42:26;;;;;;;7.13;3.23;;;;;;;;;;5084888;28;20028;-67
2021/05/02 07:44:52;;;;;;;7.37;3.63;;;;;;;;;;5076774;28;20024;-68
2021/05/02 07:47:18;;;;;;;7.37;3.50;;;;;;;;;;5086125;28;20355;-68
2021/05/02 07:49:43;;;;;;;7.77;3.43;;;;;;;;;;5062062;28;20035;-68
2021/05/02 07:52:09;;;;;;;7.37;3.10;;;;;;;;;;5078594;28;20036;-67
2021/05/02 07:54:34;;;;;;;9.67;3.50;;;;;;;;;;5070605;28;20029;-67
2021/05/02 07:56:59;;;;;;;7.03;3.40;;;;;;;;;;5080009;28;20032;-67
2021/05/02 07:59:25;;;;;;;9.37;4.00;;;;;;;;;;5072134;28;20032;-68
2021/05/02 08:01:50;;;;;;;8.03;3.37;;;;;;;;;;5076206;28;20083;-67
2021/05/02 08:04:15;;;;;;;7.97;3.90;;;;;;;;;;5072452;28;20027;-68
2021/05/02 08:06:40;;;;;;;7.33;3.33;;;;;;;;;;5078358;28;20395;-68
2021/05/02 08:09:06;;;;;;;9.10;3.23;;;;;;;;;;5083050;28;20043;-68
2021/05/02 08:11:32;;;;;;;9.57;3.20;;;;;;;;;;5082386;28;20529;-68
2021/05/02 08:13:57;;;;;;;8.33;3.47;;;;;;;;;;5082725;28;20119;-68
2021/05/02 08:16:22;;;;;;;5.63;2.43;;;;;;;;;;5085595;28;20035;-67
2021/05/02 08:18:48;;;;;;;5.43;2.37;;;;;;;;;;5080562;28;20032;-67
2021/05/02 08:21:13;;;;;;;4.87;2.33;;;;;;;;;;5081426;28;20476;-68
2021/05/02 08:23:38;;;;;;;5.67;2.60;;;;;;;;;;5084527;28;20058;-68
2021/05/02 08:26:04;;;;;;;6.20;2.87;;;;;;;;;;5078766;28;20125;-68
2021/05/02 08:28:29;;;;;;;6.13;2.80;;;;;;;;;;5085739;28;20070;-68
2021/05/02 08:30:56;;;;;;;6.20;2.50;;;;;;;;;;5080705;28;20035;-69
2021/05/02 08:33:21;;;;;;;5.80;2.80;;;;;;;;;;5082677;28;20028;-69
2021/05/02 08:35:48;;;;;;;7.00;2.93;;;;;;;;;;5078333;28;20105;-69
2021/05/02 08:38:14;;;;;;;5.40;2.37;;;;;;;;;;5074044;28;20417;-68
2021/05/02 08:40:39;;;;;;;7.03;2.47;;;;;;;;;;5084632;28;20071;-68
2021/05/02 08:43:05;;;;;;;5.90;2.20;;;;;;;;;;5077378;28;20404;-68
2021/05/02 08:45:31;;;;;;;5.90;2.97;;;;;;;;;;5083506;28;20020;-68
2021/05/02 08:47:56;;;;;;;7.63;3.03;;;;;;;;;;5084556;28;20051;-68
2021/05/02 08:50:21;;;;;;;6.80;2.67;;;;;;;;;;5082966;28;20028;-68
2021/05/02 08:52:46;;;;;;;8.47;2.70;;;;;;;;;;5078582;28;20437;-68
2021/05/02 08:55:12;;;;;;;6.67;2.60;;;;;;;;;;5073439;28;20115;-68
2021/05/02 08:57:38;;;;;;;5.37;2.53;;;;;;;;;;5082063;28;20063;-68
2021/05/02 09:00:04;;;;;;;5.80;2.33;;;;;;;;;;5087968;28;20039;-68
2021/05/02 09:02:31;;;;;;;6.47;2.63;;;;;;;;;;5105369;28;20040;-68
2021/05/02 09:04:59;;;;;;;5.30;2.40;;;;;;;;;;5110634;28;20078;-68
2021/05/02 09:07:43;;;;;;;5.67;2.40;;;;;;;;;;5102532;28;20085;-68
2021/05/02 09:10:10;;;;;;;5.30;2.70;;;;;;;;;;5101983;28;20455;-67
2021/05/02 09:12:36;;;;;;;4.03;1.90;;;;;;;;;;5104559;28;20031;-68
2021/05/02 09:15:06;;;;;;;4.03;1.83;;;;;;;;;;5108408;28;20027;-69
2021/05/02 09:17:47;;;;;;;5.37;2.10;;;;;;;;;;5106224;28;20035;-69
2021/05/02 09:20:12;;;;;;;6.40;1.80;;;;;;;;;;5106942;28;20430;-69
2021/05/02 09:22:38;;;;;;;4.50;2.33;;;;;;;;;;5111224;28;20035;-69
2021/05/02 09:25:11;;;;;;;5.83;2.00;;;;;;;;;;5108250;28;20121;-69
2021/05/02 09:27:49;;;;;;;4.10;1.97;;;;;;;;;;5102460;28;20031;-69
2021/05/02 09:30:15;;;;;;;2.60;1.20;;;;;;;;;;5097459;28;20081;-69
2021/05/02 09:32:44;;;;;;;4.17;1.40;;;;;;;;;;5096942;28;20414;-68
2021/05/02 09:35:22;;;;;;;5.43;1.60;;;;;;;;;;5106733;28;20035;-68
2021/05/02 09:37:47;;;;;;;4.50;1.70;;;;;;;;;;5101609;28;20525;-68
2021/05/02 09:40:15;;;;;;;3.00;1.40;;;;;;;;;;5107772;28;20035;-68
2021/05/02 09:42:48;;;;;;;4.40;1.67;;;;;;;;;;5097375;28;20429;-68
2021/05/02 09:45:13;;;;;;;4.43;2.05;;;;;;;;;;5098106;28;20438;-68
2021/05/02 09:47:41;;;;;;;3.60;1.60;;;;;;;;;;5102716;28;20032;-68
2021/05/02 09:50:09;;;;;;;3.67;1.50;;;;;;;;;;5107545;28;20105;-68
2021/05/02 09:52:41;;;;;;;3.73;1.50;;;;;;;;;;5081106;28;20034;-68
2021/05/02 09:55:24;;;;;;;2.80;1.30;;;;;;;;;;5111387;28;20491;-68
2021/05/02 09:57:54;;;;;;;2.60;1.10;;;;;;;;;;5111666;28;20031;-67
2021/05/02 10:00:33;;;;;;;2.67;1.20;;;;;;;;;;5097984;28;20027;-68
2021/05/02 10:02:59;;;;;;;2.70;1.00;;;;;;;;;;5104050;27;20545;-68
2021/05/02 10:05:25;;;;;;;3.50;1.50;;;;;;;;;;5100551;28;20486;-68
2021/05/02 10:07:50;;;;;;;3.70;1.10;;;;;;;;;;5104379;28;20035;-68
2021/05/02 10:10:16;;;;;;;4.23;1.30;;;;;;;;;;5099287;28;20032;-68
2021/05/02 10:12:41;;;;;;;3.07;1.30;;;;;;;;;;5091515;28;20032;-68
2021/05/02 10:15:10;;;;;;;5.60;1.60;;;;;;;;;;5103588;28;20028;-68
2021/05/02 10:17:37;;;;;;;2.37;1.13;;;;;;;;;;5094959;28;20034;-67
2021/05/02 10:20:02;;;;;;;6.33;1.70;;;;;;;;;;5101256;28;20487;-67
2021/05/02 10:22:28;;;;;;;5.53;1.60;;;;;;;;;;5101487;28;20058;-67
2021/05/02 10:24:54;;;;;;;3.80;1.97;;;;;;;;;;5106628;28;20024;-68
2021/05/02 10:27:19;;;;;;;3.70;1.30;;;;;;;;;;5102895;28;20020;-68
2021/05/02 10:29:48;;;;;;;3.27;1.60;;;;;;;;;;5102766;28;20031;-68
2021/05/02 10:32:18;;;;;;;7.63;2.00;;;;;;;;;;5104011;28;20047;-68
2021/05/02 10:34:49;;;;;;;4.20;1.40;;;;;;;;;;5103179;28;20576;-68
2021/05/02 10:37:24;;;;;;;8.37;1.30;;;;;;;;;;5108309;28;20471;-68
2021/05/02 10:39:52;;;;;;;4.70;1.20;;;;;;;;;;5106834;28;20080;-68
2021/05/02 10:42:36;;;;;;;2.60;1.03;;;;;;;;;;5100030;28;20024;-68
2021/05/02 10:45:19;;;;;;;1.83;0.90;;;;;;;;;;5107793;28;20031;-68
2021/05/02 10:47:45;;;;;;;3.33;1.27;;;;;;;;;;5105132;28;20044;-68
2021/05/02 10:50:24;;;;;;;2.37;1.00;;;;;;;;;;5108746;28;20035;-68
2021/05/02 10:53:00;;;;;;;3.27;0.93;;;;;;;;;;5105454;28;20114;-68
2021/05/02 10:55:44;;;;;;;2.43;1.00;;;;;;;;;;5102554;28;20624;-67
2021/05/02 10:58:17;;;;;;;2.63;1.23;;;;;;;;;;5101299;28;20102;-68
2021/05/02 11:00:49;;;;;;;3.03;1.20;;;;;;;;;;5095421;28;20386;-67
2021/05/02 11:03:33;;;;;;;1.92;1.00;;;;;;;;;;5079831;28;20059;-68
2021/05/02 11:05:58;;;;;;;2.73;1.30;;;;;;;;;;5086699;28;20081;-67
2021/05/02 11:08:44;;;;;;;5.17;1.50;;;;;;;;;;5079490;28;20488;-67
2021/05/02 11:11:32;;;;;;;2.87;1.20;;;;;;;;;;5083669;28;20094;-68
2021/05/02 11:14:06;;;;;;;2.87;1.13;;;;;;;;;;5088314;28;20118;-68
2021/05/02 11:16:32;;;;;;;6.60;1.30;;;;;;;;;;5080517;28;20032;-68
2021/05/02 11:18:57;;;;;;;2.87;1.10;;;;;;;;;;5080938;28;20028;-68
2021/05/02 11:21:23;;;;;;;2.63;1.00;;;;;;;;;;5083150;28;20498;-67
2021/05/02 11:24:00;;;;;;;2.07;1.10;;;;;;;;;;5084916;28;20135;-67
2021/05/02 11:26:44;;;;;;;3.77;1.23;;;;;;;;;;5079404;28;20387;-68
2021/05/02 11:29:21;;;;;;;4.47;1.40;;;;;;;;;;5078711;28;20364;-67
2021/05/02 11:31:46;;;;;;;2.63;1.00;;;;;;;;;;5084364;28;20031;-67
2021/05/02 11:34:11;;;;;;;3.43;1.10;;;;;;;;;;5080929;28;20042;-67
2021/05/02 11:36:41;;;;;;;4.13;1.17;;;;;;;;;;5084373;28;20027;-67
2021/05/02 11:39:07;;;;;;;3.17;1.20;;;;;;;;;;5075031;28;20048;-67
2021/05/02 11:41:50;;;;;;;3.00;1.10;;;;;;;;;;5076426;28;20046;-67
2021/05/02 11:44:15;;;;;;;2.63;1.30;;;;;;;;;;5077174;28;20020;-67
2021/05/02 11:46:41;;;;;;;2.80;1.00;;;;;;;;;;5078339;28;20031;-67
2021/05/02 11:49:06;;;;;;;2.80;1.23;;;;;;;;;;5075099;28;20089;-68
2021/05/02 11:51:31;;;;;;;3.57;1.17;;;;;;;;;;5083638;28;20047;-68
2021/05/02 11:53:57;;;;;;;2.03;1.00;;;;;;;;;;5078740;28;20459;-67
2021/05/02 11:56:26;;;;;;;3.77;1.37;;;;;;;;;;5082330;28;20024;-68
2021/05/02 11:58:53;;;;;;;1.77;1.00;;;;;;;;;;5084902;28;20134;-68
2021/05/02 12:01:19;;;;;;;2.07;0.97;;;;;;;;;;5084044;27;20585;-68
2021/05/02 12:03:45;;;;;;;2.13;1.00;;;;;;;;;;5104955;28;20024;-67
2021/05/02 12:06:19;;;;;;;2.20;1.00;;;;;;;;;;5098375;28;20065;-67
2021/05/02 12:08:46;;;;;;;1.63;0.90;;;;;;;;;;5093485;28;20106;-68
2021/05/02 12:11:12;;;;;;;2.70;1.10;;;;;;;;;;5093650;28;20020;-67
2021/05/02 12:13:43;;;;;;;1.97;1.10;;;;;;;;;;5105487;28;20528;-68
2021/05/02 12:16:10;;;;;;;1.83;1.10;;;;;;;;;;5102597;28;20301;-68
2021/05/02 12:18:49;;;;;;;3.13;1.47;;;;;;;;;;5103724;28;20027;-68
2021/05/02 12:21:27;;;;;;;3.30;1.00;;;;;;;;;;5103477;28;20352;-68
2021/05/02 12:24:06;;;;;;;1.50;0.90;;;;;;;;;;5107599;28;20023;-68
2021/05/02 12:26:33;;;;;;;1.57;1.00;;;;;;;;;;5107322;28;20034;-68
2021/05/02 12:28:59;;;;;;;3.43;0.90;;;;;;;;;;5093785;28;20039;-68
2021/05/02 12:31:25;;;;;;;2.03;0.83;;;;;;;;;;5094909;28;20319;-68
2021/05/02 12:33:50;;;;;;;2.53;1.07;;;;;;;;;;5097245;28;20055;-67
2021/05/02 12:36:17;;;;;;;2.10;0.97;;;;;;;;;;5107581;28;20019;-67
2021/05/02 12:38:42;;;;;;;1.77;0.70;;;;;;;;;;5107235;28;20084;-67
2021/05/02 12:41:18;;;;;;;1.80;0.93;;;;;;;;;;5101557;28;20032;-68
2021/05/02 12:43:49;;;;;;;2.40;0.90;;;;;;;;;;5096448;28;20051;-67
2021/05/02 12:46:33;;;;;;;2.03;0.73;;;;;;;;;;5109050;28;20082;-68
2021/05/02 12:49:12;;;;;;;1.17;0.60;;;;;;;;;;5101875;28;20470;-69
2021/05/02 12:51:37;;;;;;;0.77;0.60;;;;;;;;;;5104400;28;20032;-67
2021/05/02 12:54:10;;;;;;;2.93;0.50;;;;;;;;;;5100531;28;20035;-67
2021/05/02 12:56:35;;;;;;;0.53;0.50;;;;;;;;;;5106502;28;20059;-67
2021/05/02 12:59:01;;;;;;;0.97;0.50;;;;;;;;;;5096238;28;20019;-67
2021/05/02 13:01:28;;;;;;;0.60;0.40;;;;;;;;;;5101567;28;20047;-67
2021/05/02 13:03:58;;;;;;;1.37;0.50;;;;;;;;;;5106191;28;20081;-67
2021/05/02 13:06:24;;;;;;;0.60;0.40;;;;;;;;;;5099144;28;20035;-66
2021/05/02 13:08:55;;;;;;;1.00;0.60;;;;;;;;;;5102118;28;20031;-66
2021/05/02 13:11:21;;;;;;;1.00;0.60;;;;;;;;;;5086596;28;20099;-66
2021/05/02 13:13:47;;;;;;;1.03;0.67;;;;;;;;;;5095241;28;20653;-66
2021/05/02 13:16:12;;;;;;;0.80;0.63;;;;;;;;;;5099786;28;20040;-66
2021/05/02 13:18:37;;;;;;;1.33;0.50;;;;;;;;;;5098825;28;20048;-66
2021/05/02 13:21:03;;;;;;;2.60;0.70;;;;;;;;;;5097179;28;20055;-66
2021/05/02 13:23:38;;;;;;;1.30;0.60;;;;;;;;;;5104472;28;20434;-66
2021/05/02 13:26:15;;;;;;;2.00;0.70;;;;;;;;;;5105207;28;20020;-67
2021/05/02 13:28:59;;;;;;;1.40;0.60;;;;;;;;;;5100681;28;20028;-67
2021/05/02 13:31:43;;;;;;;0.93;0.50;;;;;;;;;;5093049;28;20039;-66
2021/05/02 13:34:09;;;;;;;1.80;0.70;;;;;;;;;;5096064;28;20027;-66
2021/05/02 13:36:34;;;;;;;3.30;0.70;;;;;;;;;;5098271;28;20068;-65
2021/05/02 13:39:00;;;;;;;2.17;0.60;;;;;;;;;;5105127;28;20038;-66
2021/05/02 13:41:25;;;;;;;2.43;0.70;;;;;;;;;;5090889;28;20036;-66
2021/05/02 13:44:06;;;;;;;1.13;0.57;;;;;;;;;;5095193;28;20032;-65
2021/05/02 13:46:31;;;;;;;1.23;0.60;;;;;;;;;;5102004;28;20020;-65
2021/05/02 13:48:56;;;;;;;1.83;0.70;;;;;;;;;;5102757;28;20030;-66
2021/05/02 13:51:22;;;;;;;1.70;0.80;;;;;;;;;;5103726;28;20548;-66
2021/05/02 13:53:50;;;;;;;3.80;0.70;;;;;;;;;;5095785;28;20028;-65
2021/05/02 13:56:18;;;;;;;1.23;0.60;;;;;;;;;;5108155;28;20031;-66
2021/05/02 13:58:43;;;;;;;1.50;0.50;;;;;;;;;;5101351;28;20028;-66
2021/05/02 14:01:08;;;;;;;2.30;0.67;;;;;;;;;;5103063;28;20040;-67
2021/05/02 14:03:33;;;;;;;1.27;0.73;;;;;;;;;;5104051;28;20054;-66
2021/05/02 14:05:58;;;;;;;1.47;0.50;;;;;;;;;;5099706;28;20023;-66
2021/05/02 14:08:24;;;;;;;1.93;0.70;;;;;;;;;;5107544;28;20106;-66
2021/05/02 14:10:49;;;;;;;2.17;0.90;;;;;;;;;;5103615;28;20034;-66
2021/05/02 14:13:14;;;;;;;1.80;1.00;;;;;;;;;;5103464;28;20038;-66
2021/05/02 14:15:40;;;;;;;1.67;0.90;;;;;;;;;;5100113;28;20054;-65
2021/05/02 14:18:05;;;;;;;1.50;0.70;;;;;;;;;;5106868;28;20039;-65
2021/05/02 14:20:30;;;;;;;2.00;1.13;;;;;;;;;;5102804;28;20106;-65
2021/05/02 14:22:55;;;;;;;2.00;0.80;;;;;;;;;;5107470;28;20031;-66
2021/05/02 14:25:21;;;;;;;2.30;0.67;;;;;;;;;;5111165;28;20444;-66
2021/05/02 14:27:46;;;;;;;2.17;0.90;;;;;;;;;;5099300;28;20055;-66
2021/05/02 14:30:12;;;;;;;2.63;0.97;;;;;;;;;;5108738;28;20388;-66
2021/05/02 14:32:37;;;;;;;2.60;1.00;;;;;;;;;;5103126;28;20023;-66
2021/05/02 14:35:02;;;;;;;4.03;1.20;;;;;;;;;;5100969;28;20028;-66
2021/05/02 14:37:28;;;;;;;1.93;0.80;;;;;;;;;;5107128;28;20046;-66